Station NKXA2 - Naked Island, AK Image indicating link to RSS feed of recent meteorological observations for station NKXA2


Conditions at NKXA2 as of
(3:42 am AKDT)
1142 GMT on 04/21/2024:
     

Click on the graph icon in the table below to see a time series plot of the last five days of that observation.

5-day plot - Wind Direction Wind Direction (WDIR): E ( 100 deg true )
5-day plot - Wind Speed Wind Speed (WSPD): 1 kts
5-day plot - Wind Gust Wind Gust (GST): 2 kts
5-day plot - Air Temperature Air Temperature (ATMP): 39.7 °F
5-day plot - Dew Point Dew Point (DEWP): 33.3 °F
5-day plot - Wind Speed at 10 Meters Wind Speed at 10 meters (WSPD10M): 2 kts
5-day plot - Wind Speed at 20 Meters Wind Speed at 20 meters (WSPD20M): 2 kts
5-day plot -  Wind Speed, Wind Gust and Atmospheric Pressure Combined plot of Wind Speed, Gust, and Air Pressure
Previous observations
TIME
(AKDT)
5-day plot - Wind Direction
WDIR
 
5-day plot - Wind Speed
WSPD
kts
5-day plot - Wind Gust
GST
kts
5-day plot - Wave Height
WVHT
ft
5-day plot - Dominant Wave Period
DPD
sec
5-day plot - Average Wave Period
APD
sec
5-day plot - Mean Wave Direction
MWD
 
5-day plot - Atmospheric Pressure
PRES
in
5-day plot - Pressure Tendency
PTDY
in
5-day plot - Air Temperature
ATMP
°F
5-day plot - Water Temperature
WTMP
°F
5-day plot - Dew Point
DEWP
°F
5-day plot - Salinity
SAL
psu
5-day plot - Visibility
VIS
nmi
5-day plot - Tide (above MLLW)
TIDE
ft
2024-04-21 03:32 am E 2 2------ 40.1- 33.3---
2024-04-21 03:22 am- 0 2------ 40.6- 33.8---
2024-04-21 03:12 am E 2 3------ 40.5- 34.2---
2024-04-21 03:02 am SE 2 3------ 40.8- 34.7---
2024-04-21 02:52 amESE 1 2------ 41.0- 34.2---
2024-04-21 02:42 amENE 1 2------ 41.0- 34.2---
2024-04-21 02:32 amENE 2 3------ 41.2- 34.3---
2024-04-21 02:22 am- 0 2------ 42.1- 35.6---
2024-04-21 02:12 am W 2 3------ 42.4- 35.1---
2024-04-21 01:52 am- 0 2------ 42.6- 34.2---
2024-04-21 01:42 am E 1 2------ 43.2- 34.3---
2024-04-21 01:32 amWSW 2 4------ 44.1- 35.1---
2024-04-21 01:22 amWSW 2 4------ 44.1- 34.3---
2024-04-21 01:12 amESE 1 2------ 44.4- 33.8---
2024-04-21 01:02 am SE 2 4------ 44.8- 34.2---
2024-04-21 12:52 am SE 3 4------ 45.0- 33.4---
2024-04-21 12:42 amESE 3 4------ 44.4- 34.2---
2024-04-21 12:33 amESE 4 5------ 44.6- 34.0---
2024-04-21 12:22 am SE 3 5------ 44.4- 34.5---
2024-04-21 12:13 am E 3 5------ 44.2- 35.2---
2024-04-21 12:02 am E 2 4------ 45.1- 35.6---
2024-04-20 11:52 pmNNE 1 2------ 45.5- 33.8---
2024-04-20 11:42 pm S 1 3------ 45.9- 33.3---
2024-04-20 11:32 pmESE 2 3------ 46.2- 34.0---
2024-04-20 11:22 pmESE 2 3------ 46.8- 33.6---
2024-04-20 11:12 pm SE 3 4------ 47.5- 34.0---
2024-04-20 11:02 pm SE 4 6------ 47.7- 34.3---
2024-04-20 10:52 pm SE 4 6------ 47.3- 34.9---
2024-04-20 10:42 pmSSE 4 6------ 47.7- 34.0---
2024-04-20 10:32 pmSSE 4 6------ 47.8- 33.4---
2024-04-20 10:22 pm SE 3 7------ 47.8- 33.8---
2024-04-20 10:12 pmSSE 4 6------ 48.6- 33.8---
2024-04-20 10:02 pm S 6 8------ 49.3- 33.3---
2024-04-20 09:52 pmSSE 6 9------ 49.1- 33.1---
2024-04-20 09:42 pmSSE 5 7------ 49.8- 32.9---
2024-04-20 09:32 pmSSE 6 8------ 50.2- 32.5---
2024-04-20 09:22 pmSSE 7 8------ 50.2- 32.9---
2024-04-20 09:12 pm SE 4 7------ 48.2- 34.2---
2024-04-20 09:02 pmESE 3 4------ 49.1- 31.3---
2024-04-20 08:52 pm SE 4 4------ 49.3- 33.1---
2024-04-20 08:43 pm SE 4 5------ 49.3- 33.1---
2024-04-20 08:33 pm E 3 4------ 49.6- 34.9---
2024-04-20 08:12 pm SE 4 5------ 49.3- 37.0---
2024-04-20 08:02 pmSSE 4 5------ 48.9- 37.9---
2024-04-20 07:52 pm S 4 6------ 49.3- 38.3---
2024-04-20 07:43 pm S 3 4------ 51.3- 34.9---
2024-04-20 07:32 pmSSW 3 4------ 51.1- 36.3---
2024-04-20 07:22 pm SW 2 4------ 50.5- 38.1---
2024-04-20 07:12 pmSSW 3 4------ 50.2- 38.5---
2024-04-20 07:02 pmSSW 2 5------ 50.9- 39.2---
2024-04-20 06:52 pm SW 2 5------ 52.3- 38.7---
2024-04-20 06:42 pmWSW 2 4------ 53.6- 37.6---
2024-04-20 06:32 pm W 1 3------ 53.6- 37.4---
2024-04-20 06:22 pm W 2 3------ 53.1- 37.2---
2024-04-20 06:12 pm SW 2 3------ 52.5- 38.5---
2024-04-20 06:02 pmWSW 3 4------ 52.2- 37.8---
2024-04-20 05:52 pmWSW 3 4------ 53.1- 37.2---
2024-04-20 05:42 pm SW 2 3------ 52.5- 39.2---
2024-04-20 05:32 pm SW 2 4------ 52.3- 40.1---
2024-04-20 05:22 pm SW 2 4------ 52.2- 39.9---
2024-04-20 05:12 pm SW 2 5------ 52.3- 38.8---
2024-04-20 05:02 pmSSW 2 4------ 50.7- 39.2---
2024-04-20 04:52 pm SW 2 5------ 50.9- 39.6---
2024-04-20 04:42 pmSSW 3 5------ 50.4- 39.9---
2024-04-20 04:32 pm SW 3 6------ 50.9- 39.2---
2024-04-20 04:22 pm SW 3 6------ 50.0- 39.4---
2024-04-20 04:12 pm SW 3 6------ 50.9- 38.7---
2024-04-20 03:42 pm W 3 5------ 51.6- 37.9---
2024-04-20 03:32 pmWNW 2 5------ 52.2- 38.8---
2024-04-20 03:22 pm NW 5 9------ 51.6- 36.3---
2024-04-20 03:12 pmNNW 5 10------ 52.5- 35.8---
2024-04-20 03:02 pmNNW 6 11------ 53.4- 32.9---
2024-04-20 02:52 pmNNW 5 10------ 52.9- 33.4---
2024-04-20 02:42 pmNNW 5 9------ 53.1- 32.9---
2024-04-20 02:32 pmNNW 6 10------ 52.7- 32.4---
2024-04-20 02:23 pmNNW 6 10------ 52.0- 32.4---
2024-04-20 02:12 pmNNW 6 11------ 51.4- 32.4---
2024-04-20 02:02 pmNNW 6 11------ 51.1- 33.4---
2024-04-20 01:52 pm N 5 10------ 51.1- 33.1---
2024-04-20 01:42 pmNNW 5 9------ 50.9- 33.4---
2024-04-20 01:32 pmNNW 5 11------ 50.0- 34.2---
2024-04-20 01:22 pm N 5 9------ 48.9- 35.6---
2024-04-20 01:12 pm N 5 9------ 48.9- 34.9---
2024-04-20 01:02 pmNNW 7 11------ 48.4- 33.8---
2024-04-20 12:52 pmNNW 6 10------ 48.2- 35.2---
2024-04-20 12:42 pmNNW 5 10------ 47.3- 36.0---
2024-04-20 12:32 pmNNW 7 9------ 46.0- 36.0---
2024-04-20 12:22 pm NW 5 8------ 46.4- 36.9---
2024-04-20 12:12 pm NW 4 7------ 46.9- 37.4---
2024-04-20 12:02 pm NW 4 9------ 46.8- 37.0---
2024-04-20 11:52 amNNW 6 9------ 46.2- 36.5---
2024-04-20 11:42 am NW 6 9------ 45.9- 36.1---
2024-04-20 11:32 am NW 4 9------ 46.4- 37.4---
2024-04-20 11:22 amNNW 5 10------ 45.0- 36.1---
2024-04-20 11:12 amNNW 7 10------ 44.2- 35.8---
2024-04-20 11:02 amNNW 7 10------ 44.4- 36.1---
2024-04-20 10:52 amNNW 6 10------ 44.8- 36.3---
2024-04-20 10:42 amNNW 5 10------ 44.4- 36.3---
2024-04-20 10:32 amNNW 7 11------ 44.2- 36.1---
2024-04-20 10:22 amNNW 5 9------ 44.6- 36.5---
2024-04-20 10:12 amNNW 6 10------ 44.2- 36.1---
2024-04-20 10:02 amNNW 6 10------ 44.2- 36.0---
2024-04-20 09:52 amNNW 5 9------ 44.4- 36.1---
2024-04-20 09:42 am N 5 10------ 44.6- 35.8---
2024-04-20 09:32 amNNW 5 10------ 44.6- 35.4---
2024-04-20 09:22 am N 5 9------ 44.4- 35.2---
2024-04-20 09:12 amNNW 6 10------ 43.9- 35.4---
2024-04-20 09:02 amNNW 6 11------ 43.3- 35.8---
2024-04-20 08:52 amNNW 7 11------ 43.0- 35.6---
2024-04-20 08:42 amNNW 7 11------ 42.8- 35.6---
2024-04-20 08:32 amNNW 7 11------ 42.8- 36.0---
2024-04-20 08:23 amNNW 7 12------ 42.8- 35.8---
2024-04-20 08:07 amNNW 6 10------ 42.8- 35.1---
2024-04-20 08:02 amNNW 6 10------ 42.8- 35.1---
2024-04-20 07:43 amNNW 8 13------ 42.4- 34.3---
2024-04-20 07:32 amNNW 7 11------ 43.3- 33.8---
2024-04-20 07:22 am N 6 11------ 44.1- 33.3---
2024-04-20 07:12 am N 7 12------ 43.9- 33.1---
2024-04-20 07:02 amNNE 4 10------ 44.6- 33.1---
2024-04-20 06:52 am NE 4 11------ 44.1- 32.5---
2024-04-20 06:42 am N 5 10------ 42.3- 33.3---
2024-04-20 06:32 amNNW 6 11------ 41.7- 33.3---
2024-04-20 06:22 amNNW 6 10------ 41.7- 33.1---
2024-04-20 06:12 am N 4 8------ 41.9- 33.1---
2024-04-20 06:02 amNNW 5 11------ 41.7- 33.3---
2024-04-20 05:52 am N 5 10------ 41.5- 33.3---
2024-04-20 05:42 am N 5 8------ 41.7- 33.3---
2024-04-20 05:32 am N 5 9------ 41.7- 32.9---
2024-04-20 05:22 am N 4 9------ 41.9- 33.1---
2024-04-20 05:12 am N 4 7------ 41.5- 33.3---
2024-04-20 05:02 am N 4 8------ 41.9- 33.3---
2024-04-20 04:52 am N 4 7------ 41.7- 33.3---
2024-04-20 04:42 am N 3 7------ 41.2- 33.3---
2024-04-20 04:32 amENE 2 4------ 40.6- 32.7---
2024-04-20 04:22 amENE 2 4------ 41.2- 32.9---
2024-04-20 04:12 amNNE 3 6------ 42.1- 33.3---
2024-04-20 04:02 am N 3 6------ 41.9- 33.1---
2024-04-20 03:52 amSSW 2 5------ 41.9- 32.5---